createdAt,value
2022-08-09T00:00:21.106Z,2.22
2022-08-09T00:02:49.858Z,1.80
2022-08-09T00:06:18.831Z,2.50
2022-08-09T00:08:10.024Z,1.83
2022-08-09T00:10:39.323Z,1.75
2022-08-09T00:13:16.982Z,1.85
2022-08-09T00:15:59.668Z,2.00
2022-08-09T00:18:35.037Z,1.80
2022-08-09T00:21:08.817Z,1.98
2022-08-09T00:23:57.103Z,1.85
2022-08-09T00:26:32.327Z,2.22
2022-08-09T00:29:02.142Z,1.75
2022-08-09T00:32:00.055Z,2.25
2022-08-09T00:34:19.050Z,1.80
2022-08-09T00:36:48.129Z,2.17
2022-08-09T00:40:01.842Z,2.35
2022-08-09T00:44:14.504Z,2.03
2022-08-09T00:44:49.321Z,1.67
2022-08-09T00:47:16.022Z,2.10
2022-08-09T00:49:52.649Z,2.00
2022-08-09T00:52:29.961Z,2.03
2022-08-09T00:57:34.617Z,2.22
2022-08-09T01:00:21.363Z,2.50
2022-08-09T01:03:16.931Z,2.10
2022-08-09T01:06:03.902Z,2.30
2022-08-09T01:09:13.725Z,2.55
2022-08-09T01:12:06.526Z,2.28
2022-08-09T01:14:52.591Z,2.17
2022-08-09T01:17:30.260Z,2.03
2022-08-09T01:20:04.820Z,2.22
2022-08-09T01:22:57.321Z,2.60
2022-08-09T01:26:02.432Z,1.83
2022-08-09T01:28:30.639Z,1.70
2022-08-09T01:31:03.518Z,2.75
2022-08-09T01:33:38.294Z,2.20
2022-08-09T01:36:14.811Z,2.20
2022-08-09T01:38:47.191Z,2.15
2022-08-09T01:41:25.758Z,2.00
2022-08-09T01:44:00.567Z,2.28
2022-08-09T01:46:36.204Z,2.17
2022-08-09T01:49:12.779Z,1.90
2022-08-09T01:51:54.827Z,2.28
2022-08-09T01:54:32.948Z,2.00
2022-08-09T01:57:14.800Z,2.30
2022-08-09T01:59:51.760Z,2.45
2022-08-09T02:02:30.925Z,2.65
2022-08-09T02:05:15.868Z,2.45
2022-08-09T02:08:35.337Z,2.85
2022-08-09T02:10:52.186Z,2.63
2022-08-09T02:13:22.067Z,2.33
2022-08-09T02:15:56.423Z,2.28
2022-08-09T02:18:28.003Z,2.42
2022-08-09T02:21:02.752Z,2.28
2022-08-09T02:23:54.433Z,2.63
2022-08-09T02:26:25.007Z,2.28
2022-08-09T02:29:05.389Z,2.03
2022-08-09T02:31:41.401Z,2.42
2022-08-09T02:34:25.992Z,2.92
2022-08-09T02:37:12.092Z,2.58
2022-08-09T02:39:49.620Z,2.60
2022-08-09T02:42:25.434Z,2.85
2022-08-09T02:45:16.645Z,2.47
2022-08-09T02:47:58.010Z,2.13
2022-08-09T02:50:33.098Z,2.70
2022-08-09T02:53:08.004Z,2.28
2022-08-09T02:55:46.335Z,2.35
2022-08-09T02:58:32.424Z,2.13
2022-08-09T03:01:06.369Z,2.08
2022-08-09T03:04:16.628Z,3.28
2022-08-09T03:06:27.646Z,2.03
2022-08-09T03:08:56.263Z,2.55
2022-08-09T03:11:29.703Z,2.15
2022-08-09T03:14:12.966Z,2.85
2022-08-09T03:16:44.781Z,2.53
2022-08-09T03:19:58.712Z,2.45
2022-08-09T03:22:05.067Z,2.45
2022-08-09T03:24:51.737Z,2.00
2022-08-09T03:27:21.593Z,2.40
2022-08-09T03:29:58.049Z,2.58
2022-08-09T03:32:31.914Z,2.58
2022-08-09T03:35:00.608Z,2.17
2022-08-09T03:37:56.265Z,3.10
2022-08-09T03:40:17.979Z,3.22
2022-08-09T03:42:46.582Z,3.45
2022-08-09T03:45:14.050Z,2.20
2022-08-09T03:47:46.670Z,2.42
2022-08-09T03:50:18.817Z,2.45
2022-08-09T03:52:59.605Z,2.15
2022-08-09T03:55:26.770Z,2.50
2022-08-09T03:58:03.294Z,2.75
2022-08-09T04:00:44.018Z,2.55
2022-08-09T04:03:24.965Z,2.75
2022-08-09T04:05:58.991Z,2.28
2022-08-09T04:08:28.972Z,2.72
2022-08-09T04:10:56.426Z,3.78
2022-08-09T04:14:37.327Z,2.90
2022-08-09T04:16:19.389Z,2.42
2022-08-09T04:18:49.217Z,2.55
2022-08-09T04:21:18.392Z,2.90
2022-08-09T04:23:53.598Z,3.10
2022-08-09T04:26:23.458Z,2.50
2022-08-09T04:28:50.657Z,3.05
2022-08-09T04:31:17.405Z,3.05
2022-08-09T04:33:52.107Z,2.75
2022-08-09T04:36:29.007Z,2.88
2022-08-09T04:39:01.882Z,3.30
2022-08-09T04:41:33.323Z,3.00
2022-08-09T04:44:06.887Z,2.78
2022-08-09T04:46:58.834Z,2.45
2022-08-09T04:49:53.000Z,3.28
2022-08-09T04:52:26.575Z,3.03
2022-08-09T04:54:56.858Z,2.95
2022-08-09T04:57:25.248Z,3.30
2022-08-09T04:59:56.208Z,3.22
2022-08-09T05:02:27.113Z,3.80
2022-08-09T05:04:55.372Z,2.60
2022-08-09T05:07:23.653Z,3.25
2022-08-09T05:09:51.222Z,2.85
2022-08-09T05:12:18.550Z,3.38
2022-08-09T05:14:49.206Z,2.90
2022-08-09T05:18:38.521Z,2.85
2022-08-09T05:20:04.914Z,2.92
2022-08-09T05:22:36.111Z,2.78
2022-08-09T05:25:19.942Z,2.60
2022-08-09T05:27:47.931Z,2.95
2022-08-09T05:30:15.923Z,2.80
2022-08-09T05:32:50.909Z,3.30
2022-08-09T05:35:18.181Z,3.42
2022-08-09T05:37:47.718Z,2.72
2022-08-09T05:40:15.583Z,2.70
2022-08-09T05:42:42.984Z,2.92
2022-08-09T05:45:10.976Z,2.78
2022-08-09T05:47:52.134Z,2.42
2022-08-09T05:50:36.238Z,2.97
2022-08-09T05:53:21.440Z,3.50
2022-08-09T05:55:50.620Z,2.40
2022-08-09T05:58:19.804Z,2.42
2022-08-09T06:00:46.489Z,2.83
2022-08-09T06:03:19.711Z,2.80
2022-08-09T06:05:54.815Z,3.03
2022-08-09T06:08:29.449Z,2.65
2022-08-09T06:10:59.128Z,2.53
2022-08-09T06:13:28.556Z,2.67
2022-08-09T06:16:05.028Z,2.80
2022-08-09T06:18:33.489Z,2.58
2022-08-09T06:21:01.415Z,2.60
2022-08-09T06:23:57.962Z,2.30
2022-08-09T06:26:20.321Z,2.13
2022-08-09T06:29:01.168Z,2.95
2022-08-09T06:31:40.187Z,2.50
2022-08-09T06:34:22.551Z,2.50
2022-08-09T06:36:59.289Z,2.53
2022-08-09T06:39:48.562Z,2.75
2022-08-09T06:42:30.618Z,2.47
2022-08-09T06:44:59.286Z,2.50
2022-08-09T06:47:39.425Z,2.17
2022-08-09T06:50:14.606Z,2.28
2022-08-09T06:52:47.086Z,2.83
2022-08-09T06:55:18.265Z,2.53
2022-08-09T06:58:01.574Z,3.03
2022-08-09T07:00:50.842Z,2.20
2022-08-09T07:03:18.155Z,2.72
2022-08-09T07:05:58.060Z,2.25
2022-08-09T07:08:31.176Z,2.63
2022-08-09T07:10:57.890Z,2.60
2022-08-09T07:13:28.105Z,2.20
2022-08-09T07:16:43.206Z,2.67
2022-08-09T07:18:43.427Z,2.53
2022-08-09T07:21:10.812Z,2.15
2022-08-09T07:23:56.279Z,2.88
2022-08-09T07:26:25.231Z,2.15
2022-08-09T07:29:08.651Z,2.30
2022-08-09T07:31:45.415Z,2.30
2022-08-09T07:34:20.626Z,2.33
2022-08-09T07:36:49.173Z,2.15
2022-08-09T07:39:20.436Z,1.90
2022-08-09T07:42:02.928Z,1.90
2022-08-09T07:44:33.013Z,2.58
2022-08-09T07:47:19.407Z,2.63
2022-08-09T07:50:04.736Z,1.83
2022-08-09T07:52:35.780Z,1.77
2022-08-09T07:55:09.620Z,2.83
2022-08-09T07:57:46.479Z,1.67
2022-08-09T08:00:35.659Z,1.85
2022-08-09T08:03:05.242Z,2.50
2022-08-09T08:05:54.324Z,2.20
2022-08-09T08:08:59.893Z,1.95
2022-08-09T08:12:11.531Z,2.33
2022-08-09T08:13:57.334Z,2.35
2022-08-09T08:16:29.862Z,2.05
2022-08-09T08:18:59.665Z,2.00
2022-08-09T08:21:30.661Z,2.20
2022-08-09T08:23:57.390Z,2.35
2022-08-09T08:26:55.084Z,2.63
2022-08-09T08:29:20.040Z,2.33
2022-08-09T08:32:02.688Z,1.80
2022-08-09T08:37:01.246Z,2.22
2022-08-09T08:39:28.313Z,1.80
2022-08-09T08:41:55.193Z,1.73
2022-08-09T08:44:29.235Z,2.10
2022-08-09T08:47:04.530Z,2.22
2022-08-09T08:49:48.657Z,2.50
2022-08-09T08:52:59.657Z,1.88
2022-08-09T08:55:13.701Z,1.70
2022-08-09T08:57:42.236Z,2.20
2022-08-09T09:00:20.424Z,1.83
2022-08-09T09:03:08.205Z,2.42
2022-08-09T09:05:58.380Z,1.75
2022-08-09T09:08:30.198Z,2.35
2022-08-09T09:11:03.177Z,1.90
2022-08-09T09:13:55.187Z,2.20
2022-08-09T09:16:30.708Z,2.17
2022-08-09T09:22:11.932Z,1.70
2022-08-09T09:25:00.897Z,2.10
2022-08-09T09:28:04.274Z,1.90
2022-08-09T09:30:40.122Z,2.10
2022-08-09T09:33:16.701Z,1.70
2022-08-09T09:36:19.947Z,2.03
2022-08-09T09:38:56.785Z,1.88
2022-08-09T09:41:27.887Z,1.90
2022-08-09T09:44:12.248Z,2.17
2022-08-09T09:46:50.657Z,1.90
2022-08-09T09:49:49.723Z,1.60
2022-08-09T09:52:35.783Z,1.58
2022-08-09T09:55:27.576Z,1.70
2022-08-09T09:58:17.246Z,2.10
2022-08-09T10:00:58.960Z,2.05
2022-08-09T10:03:57.505Z,2.35
2022-08-09T10:06:42.954Z,1.83
2022-08-09T10:09:22.279Z,1.83
2022-08-09T10:12:14.537Z,2.40
2022-08-09T10:14:51.307Z,1.73
2022-08-09T10:17:50.507Z,1.77
2022-08-09T10:20:35.726Z,2.00
2022-08-09T10:23:22.756Z,2.30
2022-08-09T10:26:06.880Z,1.95
2022-08-09T10:28:39.980Z,1.77
2022-08-09T10:34:09.585Z,1.83
2022-08-09T10:36:45.647Z,1.55
2022-08-09T10:39:15.439Z,2.17
2022-08-09T10:41:46.237Z,2.03
2022-08-09T10:44:23.015Z,1.98
2022-08-09T10:48:22.598Z,1.77
2022-08-09T10:51:00.323Z,2.10
2022-08-09T10:53:38.016Z,2.35
2022-08-09T10:56:22.621Z,1.80
2022-08-09T10:58:56.538Z,1.90
2022-08-09T11:03:11.489Z,1.80
2022-08-09T11:04:31.475Z,1.70
2022-08-09T11:06:59.689Z,2.05
2022-08-09T11:09:41.410Z,2.10
2022-08-09T11:12:29.404Z,1.85
2022-08-09T11:15:50.928Z,2.20
2022-08-09T11:18:45.035Z,1.80
2022-08-09T11:21:56.901Z,2.20
2022-08-09T11:24:25.249Z,2.33
2022-08-09T11:26:54.760Z,1.75
2022-08-09T11:30:05.893Z,1.98
2022-08-09T11:33:06.473Z,1.60
2022-08-09T11:35:57.723Z,2.25
2022-08-09T11:38:34.076Z,2.00
2022-08-09T11:41:13.086Z,1.80
2022-08-09T11:43:52.621Z,2.10
2022-08-09T11:46:32.952Z,1.90
2022-08-09T11:49:05.324Z,1.90
2022-08-09T11:53:03.223Z,1.90
2022-08-09T11:55:35.119Z,1.80
2022-08-09T11:58:30.497Z,1.50
2022-08-09T12:01:15.607Z,2.25
2022-08-09T12:04:01.696Z,2.03
2022-08-09T12:06:32.622Z,2.10
2022-08-09T12:09:19.616Z,1.83
2022-08-09T12:12:05.894Z,1.42
2022-08-09T12:14:59.071Z,1.85
2022-08-09T12:17:34.258Z,2.00
2022-08-09T12:20:26.009Z,1.55
2022-08-09T12:23:03.289Z,1.65
2022-08-09T12:25:37.087Z,1.55
2022-08-09T12:29:15.215Z,2.35
2022-08-09T12:31:11.181Z,1.73
2022-08-09T12:33:58.873Z,1.42
2022-08-09T12:36:27.503Z,1.50
2022-08-09T12:39:00.412Z,1.83
2022-08-09T12:41:39.154Z,2.15
2022-08-09T12:44:09.857Z,1.83
2022-08-09T12:46:49.283Z,1.70
2022-08-09T12:49:18.965Z,1.77
2022-08-09T12:52:00.582Z,1.58
2022-08-09T12:54:31.111Z,1.45
2022-08-09T12:56:58.863Z,1.83
2022-08-09T12:59:57.532Z,1.42
2022-08-09T13:02:17.590Z,1.58
2022-08-09T13:05:02.346Z,1.73
2022-08-09T13:07:51.035Z,1.73
2022-08-09T13:10:17.094Z,1.60
2022-08-09T13:13:09.982Z,1.65
2022-08-09T13:15:35.724Z,1.60
2022-08-09T13:18:05.705Z,1.60
2022-08-09T13:21:04.128Z,1.85
2022-08-09T13:24:17.303Z,1.65
2022-08-09T13:29:06.288Z,1.55
2022-08-09T13:32:16.609Z,1.60
2022-08-09T13:34:21.731Z,1.63
2022-08-09T13:36:52.122Z,1.55
2022-08-09T13:41:19.199Z,1.65
2022-08-09T13:42:15.026Z,1.30
2022-08-09T13:44:43.700Z,1.63
2022-08-09T13:47:27.188Z,1.63
2022-08-09T13:50:01.916Z,1.67
2022-08-09T13:52:30.564Z,1.70
2022-08-09T13:55:00.249Z,1.60
2022-08-09T13:57:39.682Z,1.60
2022-08-09T14:00:15.938Z,1.77
2022-08-09T14:03:03.761Z,1.30
2022-08-09T14:05:59.259Z,1.42
2022-08-09T14:08:26.870Z,1.58
2022-08-09T14:10:54.310Z,1.42
2022-08-09T14:14:14.841Z,1.88
2022-08-09T14:16:15.995Z,2.10
2022-08-09T14:18:49.553Z,1.42
2022-08-09T14:21:23.208Z,1.60
2022-08-09T14:23:56.503Z,1.30
2022-08-09T14:26:31.749Z,1.40
2022-08-09T14:29:08.284Z,1.50
2022-08-09T14:31:53.366Z,1.67
2022-08-09T14:34:30.930Z,1.70
2022-08-09T14:37:07.475Z,1.60
2022-08-09T14:39:46.536Z,1.50
2022-08-09T14:42:30.275Z,1.23
2022-08-09T14:46:39.706Z,1.50
2022-08-09T14:48:00.272Z,1.42
2022-08-09T14:50:32.573Z,1.40
2022-08-09T14:53:12.068Z,1.80
2022-08-09T14:55:49.805Z,1.48
2022-08-09T14:58:18.234Z,1.60
2022-08-09T15:00:48.641Z,1.63
2022-08-09T15:03:20.093Z,1.40
2022-08-09T15:05:51.434Z,1.77
2022-08-09T15:08:23.652Z,1.77
2022-08-09T15:11:01.114Z,2.30
2022-08-09T15:13:48.118Z,1.80
2022-08-09T15:16:19.689Z,1.70
2022-08-09T15:18:49.147Z,2.40
2022-08-09T15:21:57.233Z,1.60
2022-08-09T15:24:12.199Z,1.70
2022-08-09T15:26:45.282Z,2.05
2022-08-09T15:30:48.497Z,1.55
2022-08-09T15:32:00.889Z,1.95
2022-08-09T15:34:34.350Z,1.67
2022-08-09T15:37:03.872Z,2.50
2022-08-09T15:39:43.755Z,1.90
2022-08-09T15:42:19.295Z,1.83
2022-08-09T15:44:46.515Z,1.65
2022-08-09T15:47:14.623Z,2.25
2022-08-09T15:50:03.863Z,1.60
2022-08-09T15:52:37.637Z,1.90
2022-08-09T15:55:18.117Z,2.25
2022-08-09T15:57:51.330Z,1.77
2022-08-09T16:00:25.205Z,1.80
2022-08-09T16:02:54.898Z,1.70
2022-08-09T16:05:47.402Z,1.83
2022-08-09T16:08:30.668Z,1.60
2022-08-09T16:11:01.524Z,1.70
2022-08-09T16:14:05.385Z,1.70
2022-08-09T16:16:18.842Z,1.75
2022-08-09T16:18:47.569Z,2.08
2022-08-09T16:21:16.804Z,1.70
2022-08-09T16:23:50.844Z,1.77
2022-08-09T16:26:34.593Z,1.83
2022-08-09T16:29:15.597Z,1.90
2022-08-09T16:32:19.835Z,1.85
2022-08-09T16:34:56.520Z,1.70
2022-08-09T16:37:55.155Z,2.05
2022-08-09T16:40:13.707Z,2.05
2022-08-09T16:42:44.998Z,1.75
2022-08-09T16:45:18.572Z,2.22
2022-08-09T16:48:41.610Z,1.88
2022-08-09T16:50:38.552Z,2.35
2022-08-09T16:53:06.373Z,1.88
2022-08-09T16:55:58.793Z,1.80
2022-08-09T16:58:21.035Z,1.55
2022-08-09T17:00:49.753Z,1.85
2022-08-09T17:03:22.015Z,1.80
2022-08-09T17:06:06.656Z,1.65
2022-08-09T17:08:43.337Z,1.73
2022-08-09T17:11:33.094Z,1.70
2022-08-09T17:14:25.486Z,1.70
2022-08-09T17:17:02.581Z,1.80
2022-08-09T17:19:47.423Z,2.03
2022-08-09T17:22:33.803Z,2.10
2022-08-09T17:25:09.806Z,1.55
2022-08-09T17:27:39.968Z,2.05
2022-08-09T17:30:16.519Z,2.03
2022-08-09T17:32:44.312Z,1.80
2022-08-09T17:35:14.064Z,1.75
2022-08-09T17:38:10.142Z,1.60
2022-08-09T17:40:34.501Z,1.65
2022-08-09T17:43:32.255Z,1.50
2022-08-09T17:46:03.288Z,1.83
2022-08-09T17:48:32.174Z,1.50
2022-08-09T17:51:06.561Z,1.33
2022-08-09T17:53:43.522Z,1.35
2022-08-09T17:56:18.479Z,2.10
2022-08-09T17:58:45.344Z,1.98
2022-08-09T18:01:22.126Z,1.60
2022-08-09T18:03:51.393Z,1.67
2022-08-09T18:06:28.782Z,2.22
2022-08-09T18:09:05.763Z,1.35
2022-08-09T18:12:05.481Z,2.00
2022-08-09T18:14:22.994Z,1.85
2022-08-09T18:16:50.806Z,2.05
2022-08-09T18:20:58.034Z,1.65
2022-08-09T18:22:13.151Z,2.00
2022-08-09T18:24:43.800Z,1.67
2022-08-09T18:27:14.174Z,2.28
2022-08-09T18:30:38.913Z,1.85
2022-08-09T18:32:47.934Z,1.77
2022-08-09T18:35:56.323Z,1.80
2022-08-09T18:38:08.813Z,1.70
2022-08-09T18:40:35.653Z,1.60
2022-08-09T18:43:03.886Z,1.50
2022-08-09T18:46:47.136Z,2.38
2022-08-09T18:48:17.904Z,2.05
2022-08-09T18:50:44.641Z,1.70
2022-08-09T18:53:13.521Z,1.92
2022-08-09T18:55:56.649Z,1.77
2022-08-09T18:58:32.559Z,1.60
2022-08-09T19:01:00.592Z,1.60
2022-08-09T19:03:28.607Z,1.77
2022-08-09T19:06:02.858Z,2.65
2022-08-09T19:08:30.370Z,1.63
2022-08-09T19:10:57.059Z,1.60
2022-08-09T19:13:38.721Z,1.70
2022-08-09T19:16:10.494Z,1.88
2022-08-09T19:18:44.239Z,1.90
2022-08-09T19:21:12.371Z,2.58
2022-08-09T19:24:32.753Z,1.45
2022-08-09T19:26:34.716Z,1.60
2022-08-09T19:29:15.468Z,1.88
2022-08-09T19:31:49.375Z,2.05
2022-08-09T19:34:22.678Z,1.90
2022-08-09T19:36:55.478Z,1.70
2022-08-09T19:39:43.760Z,1.33
2022-08-09T19:42:15.190Z,1.70
2022-08-09T19:44:50.676Z,1.65
2022-08-09T19:47:22.712Z,1.75
2022-08-09T19:50:10.332Z,1.27
2022-08-09T19:52:36.691Z,2.13
2022-08-09T19:55:04.596Z,1.45
2022-08-09T19:57:31.317Z,1.80
2022-08-09T20:00:07.032Z,1.58
2022-08-09T20:04:10.935Z,1.67
2022-08-09T20:05:24.100Z,1.50
2022-08-09T20:07:59.789Z,1.60
2022-08-09T20:10:34.597Z,1.85
2022-08-09T20:13:02.941Z,1.80
2022-08-09T20:16:34.926Z,1.42
2022-08-09T20:18:20.148Z,1.70
2022-08-09T20:20:51.324Z,1.63
2022-08-09T20:23:23.031Z,1.58
2022-08-09T20:25:53.336Z,1.77
2022-08-09T20:28:27.624Z,1.45
2022-08-09T20:30:55.230Z,1.60
2022-08-09T20:33:22.162Z,1.73
2022-08-09T20:35:50.648Z,1.50
2022-08-09T20:38:30.910Z,1.67
2022-08-09T20:41:06.205Z,2.20
2022-08-09T20:43:33.277Z,1.42
2022-08-09T20:46:33.080Z,1.70
2022-08-09T20:48:48.210Z,1.50
2022-08-09T20:51:19.186Z,1.50
2022-08-09T20:53:49.179Z,1.80
2022-08-09T20:56:21.320Z,1.45
2022-08-09T20:58:57.877Z,1.50
2022-08-09T21:01:34.379Z,1.50
2022-08-09T21:05:56.818Z,1.50
2022-08-09T21:07:12.226Z,1.90
2022-08-09T21:09:45.865Z,1.42
2022-08-09T21:12:23.714Z,1.20
2022-08-09T21:15:02.575Z,1.60
2022-08-09T21:18:23.697Z,1.20
2022-08-09T21:20:23.090Z,1.75
2022-08-09T21:22:54.505Z,1.83
2022-08-09T21:25:43.975Z,1.55
2022-08-09T21:28:34.545Z,1.55
2022-08-09T21:31:16.528Z,1.45
2022-08-09T21:33:50.760Z,1.50
2022-08-09T21:36:27.750Z,1.80
2022-08-09T21:38:57.912Z,1.50
2022-08-09T21:42:05.929Z,1.70
2022-08-09T21:44:34.109Z,2.38
2022-08-09T21:47:08.713Z,1.75
2022-08-09T21:49:42.966Z,1.83
2022-08-09T21:52:17.803Z,1.38
2022-08-09T21:54:56.842Z,1.85
2022-08-09T21:57:39.560Z,1.70
2022-08-09T22:00:31.935Z,1.60
2022-08-09T22:03:06.262Z,1.83
2022-08-09T22:05:42.271Z,1.67
2022-08-09T22:08:14.723Z,1.75
2022-08-09T22:11:50.437Z,1.60
2022-08-09T22:13:35.744Z,2.00
2022-08-09T22:16:07.710Z,2.03
2022-08-09T22:18:37.722Z,1.50
2022-08-09T22:21:09.926Z,1.73
2022-08-09T22:24:01.715Z,1.67
2022-08-09T22:26:35.236Z,1.83
2022-08-09T22:29:09.860Z,1.65
2022-08-09T22:31:50.390Z,2.70
2022-08-09T22:34:26.267Z,1.63
2022-08-09T22:36:58.612Z,1.63
2022-08-09T22:39:57.744Z,3.08
2022-08-09T22:42:21.166Z,1.92
2022-08-09T22:45:00.566Z,2.60
2022-08-09T22:48:11.844Z,1.85
2022-08-09T22:50:31.297Z,1.98
2022-08-09T22:52:59.208Z,1.90
2022-08-09T22:55:39.781Z,1.90
2022-08-09T22:58:32.094Z,1.80
2022-08-09T23:01:03.675Z,1.60
2022-08-09T23:04:03.694Z,1.63
2022-08-09T23:06:34.891Z,1.70
2022-08-09T23:09:06.834Z,1.77
2022-08-09T23:11:33.925Z,2.50
2022-08-09T23:14:00.697Z,2.08
2022-08-09T23:16:27.361Z,1.77
2022-08-09T23:18:54.020Z,1.52
2022-08-09T23:21:24.487Z,1.85
2022-08-09T23:24:05.722Z,1.40
2022-08-09T23:26:38.565Z,2.08
2022-08-09T23:29:07.810Z,2.08
2022-08-09T23:31:34.552Z,1.38
2022-08-09T23:34:03.884Z,2.17
2022-08-09T23:36:32.784Z,1.63
2022-08-09T23:39:00.124Z,1.73
2022-08-09T23:41:28.541Z,1.75
2022-08-09T23:44:01.196Z,2.42
2022-08-09T23:46:29.943Z,1.80
2022-08-09T23:48:57.898Z,1.65
2022-08-09T23:51:25.029Z,1.45
2022-08-09T23:53:53.982Z,1.70
2022-08-09T23:56:52.422Z,1.63
2022-08-09T23:59:09.557Z,1.60
